David F Stone — WCZ6032 — position and weather

sailwx.info

Track history (hours):
 
Tides and Currents Weather Stations Pressure Air Temp Water Temp Dewpoint Dewpoint Depression Visibility Wind Speed Wind Dir Waves Ship Positions

David F Stone

Owner: Blessey Enterprises, Inc., HARAHAN, LA. More information available from US FCC via Universal Licensing System and Coast Guard Vessel Documentation Center.

Last reported at 2017-Nov-16 22:45 UTC. Time now 2017-Nov-18 04:26 UTC.
Position N 29°30' W 094°52'.

Length 20 m.

Type: Ship. MMSI: 366935420.

Date/timePositionNaut miles runAvg speedWind from/ knotsBaromVisibWave heightAir tempDewpointWater temp
2017-Nov-16 22:45N 29°30' W 094°52'2 5.9
2017-Nov-16 22:26N 29°32' W 094°54'3 6.0
2017-Nov-16 22:00N 29°34' W 094°55'3 6.2
2017-Nov-16 21:30N 29°36' W 094°57'3 6.1
2017-Nov-16 21:00N 29°37' W 095°01'1 1.3
2017-Nov-16 20:30N 29°37' W 095°01'0 0.0
2017-Nov-16 20:00N 29°37' W 095°01'0 0.0
2017-Nov-16 19:30N 29°37' W 095°01'0 0.0
2017-Nov-16 19:00N 29°37' W 095°01'0 0.0
2017-Nov-16 18:30N 29°37' W 095°01'0 0.0
2017-Nov-16 18:00N 29°37' W 095°01'0 0.0
2017-Nov-16 17:30N 29°37' W 095°01'0 0.0
2017-Nov-16 17:00N 29°37' W 095°01'0 0.0
2017-Nov-16 16:30N 29°37' W 095°01'0 0.0
2017-Nov-16 16:00N 29°37' W 095°01'0 0.8
2017-Nov-16 15:30N 29°37' W 095°01'3 5.3
2017-Nov-16 15:00N 29°37' W 094°58'3 6.7
2017-Nov-16 14:30N 29°34' W 094°56'4 7.2
2017-Nov-16 14:00N 29°31' W 094°53'  
2017-Nov-12 16:14N 29°31' W 094°53'2 7.3
2017-Nov-12 16:00N 29°32' W 094°54'4 7.2
2017-Nov-12 15:30N 29°35' W 094°56'3 6.1
2017-Nov-12 15:00N 29°37' W 094°60'2 3.4
2017-Nov-12 14:30N 29°37' W 095°01'0 0.0
2017-Nov-12 14:00N 29°37' W 095°01'0 0.0
2017-Nov-12 13:30N 29°37' W 095°01'0 0.0
2017-Nov-12 13:00N 29°37' W 095°01'0 0.0
2017-Nov-12 12:30N 29°37' W 095°01'0 0.0
2017-Nov-12 12:00N 29°37' W 095°01'0 0.0
2017-Nov-12 11:30N 29°37' W 095°01'0 0.0
2017-Nov-12 11:00N 29°37' W 095°01'0 0.0
2017-Nov-12 10:30N 29°37' W 095°01'0 0.0
2017-Nov-12 10:00N 29°37' W 095°01'0 0.0
2017-Nov-12 09:30N 29°37' W 095°01'0 0.0
2017-Nov-12 09:00N 29°37' W 095°01'0 0.0
2017-Nov-12 08:30N 29°37' W 095°01'0 0.0
2017-Nov-12 08:00N 29°37' W 095°01'0 0.0
2017-Nov-12 07:30N 29°37' W 095°01'0 0.0
2017-Nov-12 07:00N 29°37' W 095°01'0 0.0
2017-Nov-12 06:30N 29°37' W 095°01'0 0.0
2017-Nov-12 06:00N 29°37' W 095°01'0 0.0
2017-Nov-12 05:30N 29°37' W 095°01'0 0.0
2017-Nov-12 05:00N 29°37' W 095°01'0 0.2
2017-Nov-12 04:30N 29°37' W 095°01'0 0.0
2017-Nov-12 04:00N 29°37' W 095°01'0 0.0
2017-Nov-12 03:30N 29°37' W 095°01'0 0.0
2017-Nov-12 03:00N 29°37' W 095°01'0 0.0
2017-Nov-12 02:30N 29°37' W 095°01'0 0.0
2017-Nov-12 02:00N 29°37' W 095°01'0 0.0
2017-Nov-12 01:30N 29°37' W 095°01'0 0.0
2017-Nov-12 01:00N 29°37' W 095°01'0 0.0
2017-Nov-12 00:30N 29°37' W 095°01'0 0.0
2017-Nov-12 00:00N 29°37' W 095°01'0 0.7
2017-Nov-11 23:30N 29°37' W 095°01'4 7.0
2017-Nov-11 23:00N 29°36' W 094°57'4 7.7
2017-Nov-11 22:30N 29°33' W 094°55'3 0.1
2017-Nov-09 22:46N 29°31' W 094°53'2 7.2
2017-Nov-09 22:30N 29°32' W 094°54'4 7.3
2017-Nov-09 22:00N 29°35' W 094°56'3 5.6
2017-Nov-09 21:30N 29°37' W 094°59'2 3.9
2017-Nov-09 21:00N 29°37' W 095°01'0 0.0
2017-Nov-09 20:30N 29°37' W 095°01'0 0.0
2017-Nov-09 20:00N 29°37' W 095°01'0 0.0
2017-Nov-09 19:30N 29°37' W 095°01'0 0.0
2017-Nov-09 19:00N 29°37' W 095°01'0 0.0
2017-Nov-09 18:30N 29°37' W 095°01'0 0.0
2017-Nov-09 18:00N 29°37' W 095°01'0 0.0
2017-Nov-09 17:30N 29°37' W 095°01'0 0.0
2017-Nov-09 17:00N 29°37' W 095°01'0 0.0
2017-Nov-09 16:30N 29°37' W 095°01'0 0.0
2017-Nov-09 16:00N 29°37' W 095°01'0 0.0
2017-Nov-09 15:30N 29°37' W 095°01'0 0.0
2017-Nov-09 15:00N 29°37' W 095°01'0 0.0
2017-Nov-09 14:30N 29°37' W 095°01'0 0.0
2017-Nov-09 14:00N 29°37' W 095°01'0 0.0
2017-Nov-09 13:30N 29°37' W 095°01'0 0.6
2017-Nov-09 13:00N 29°37' W 095°01'0 0.0
2017-Nov-09 12:30N 29°37' W 095°01'0 0.0
2017-Nov-09 12:00N 29°37' W 095°01'0 0.0
2017-Nov-09 11:30N 29°37' W 095°01'0 0.0
2017-Nov-09 11:00N 29°37' W 095°01'0 0.0
2017-Nov-09 10:30N 29°37' W 095°01'0 0.0
2017-Nov-09 10:00N 29°37' W 095°01'0 0.0
2017-Nov-09 09:30N 29°37' W 095°01'0 0.0
2017-Nov-09 09:00N 29°37' W 095°01'0 0.0
2017-Nov-09 08:30N 29°37' W 095°01'0 0.0
2017-Nov-09 08:00N 29°37' W 095°01'0 0.0
2017-Nov-09 07:30N 29°37' W 095°01'0 0.0
2017-Nov-09 07:00N 29°37' W 095°01'0 0.0
2017-Nov-09 06:30N 29°37' W 095°01'0 0.0
2017-Nov-09 06:00N 29°37' W 095°01'0 0.0
2017-Nov-09 05:30N 29°37' W 095°01'0 0.0
2017-Nov-09 05:00N 29°37' W 095°01'0 0.0
2017-Nov-09 04:30N 29°37' W 095°01'0 0.0
2017-Nov-09 04:00N 29°37' W 095°01'0 0.0
2017-Nov-09 03:30N 29°37' W 095°01'0 0.0
2017-Nov-09 03:00N 29°37' W 095°01'0 0.0
2017-Nov-09 02:30N 29°37' W 095°01'0 0.0
2017-Nov-09 02:00N 29°37' W 095°01'0 0.0
2017-Nov-09 01:30N 29°37' W 095°01'0 0.0
2017-Nov-09 01:00N 29°37' W 095°01'0 0.0
2017-Nov-09 00:30N 29°37' W 095°01'1 1.3
2017-Nov-09 00:00N 29°37' W 095°01'3 6.7
2017-Nov-08 23:30N 29°36' W 094°57'4 7.4
2017-Nov-08 23:00N 29°33' W 094°55'  
Track history (hours):
 
Tides and Currents Weather Stations Pressure Air Temp Water Temp Dewpoint Dewpoint Depression Visibility Wind Speed Wind Dir Waves Ship Positions

David F Stone

Owner: Blessey Enterprises, Inc., HARAHAN, LA. More information available from US FCC via Universal Licensing System and Coast Guard Vessel Documentation Center.

Last reported at 2017-Nov-16 22:45 UTC. Time now 2017-Nov-18 04:26 UTC.
Position N 29°30' W 094°52'.

Length 20 m.

Type: Ship. MMSI: 366935420.

Date/timePositionNaut miles runAvg speedWind from/ knotsBaromVisibWave heightAir tempDewpointWater temp
2017-Nov-16 22:45N 29°30' W 094°52'2 5.9
2017-Nov-16 22:26N 29°32' W 094°54'3 6.0
2017-Nov-16 22:00N 29°34' W 094°55'3 6.2
2017-Nov-16 21:30N 29°36' W 094°57'3 6.1
2017-Nov-16 21:00N 29°37' W 095°01'1 1.3
2017-Nov-16 20:30N 29°37' W 095°01'0 0.0
2017-Nov-16 20:00N 29°37' W 095°01'0 0.0
2017-Nov-16 19:30N 29°37' W 095°01'0 0.0
2017-Nov-16 19:00N 29°37' W 095°01'0 0.0
2017-Nov-16 18:30N 29°37' W 095°01'0 0.0
2017-Nov-16 18:00N 29°37' W 095°01'0 0.0
2017-Nov-16 17:30N 29°37' W 095°01'0 0.0
2017-Nov-16 17:00N 29°37' W 095°01'0 0.0
2017-Nov-16 16:30N 29°37' W 095°01'0 0.0
2017-Nov-16 16:00N 29°37' W 095°01'0 0.8
2017-Nov-16 15:30N 29°37' W 095°01'3 5.3
2017-Nov-16 15:00N 29°37' W 094°58'3 6.7
2017-Nov-16 14:30N 29°34' W 094°56'4 7.2
2017-Nov-16 14:00N 29°31' W 094°53'  
2017-Nov-12 16:14N 29°31' W 094°53'2 7.3
2017-Nov-12 16:00N 29°32' W 094°54'4 7.2
2017-Nov-12 15:30N 29°35' W 094°56'3 6.1
2017-Nov-12 15:00N 29°37' W 094°60'2 3.4
2017-Nov-12 14:30N 29°37' W 095°01'0 0.0
2017-Nov-12 14:00N 29°37' W 095°01'0 0.0
2017-Nov-12 13:30N 29°37' W 095°01'0 0.0
2017-Nov-12 13:00N 29°37' W 095°01'0 0.0
2017-Nov-12 12:30N 29°37' W 095°01'0 0.0
2017-Nov-12 12:00N 29°37' W 095°01'0 0.0
2017-Nov-12 11:30N 29°37' W 095°01'0 0.0
2017-Nov-12 11:00N 29°37' W 095°01'0 0.0
2017-Nov-12 10:30N 29°37' W 095°01'0 0.0
2017-Nov-12 10:00N 29°37' W 095°01'0 0.0
2017-Nov-12 09:30N 29°37' W 095°01'0 0.0
2017-Nov-12 09:00N 29°37' W 095°01'0 0.0
2017-Nov-12 08:30N 29°37' W 095°01'0 0.0
2017-Nov-12 08:00N 29°37' W 095°01'0 0.0
2017-Nov-12 07:30N 29°37' W 095°01'0 0.0
2017-Nov-12 07:00N 29°37' W 095°01'0 0.0
2017-Nov-12 06:30N 29°37' W 095°01'0 0.0
2017-Nov-12 06:00N 29°37' W 095°01'0 0.0
2017-Nov-12 05:30N 29°37' W 095°01'0 0.0
2017-Nov-12 05:00N 29°37' W 095°01'0 0.2
2017-Nov-12 04:30N 29°37' W 095°01'0 0.0
2017-Nov-12 04:00N 29°37' W 095°01'0 0.0
2017-Nov-12 03:30N 29°37' W 095°01'0 0.0
2017-Nov-12 03:00N 29°37' W 095°01'0 0.0
2017-Nov-12 02:30N 29°37' W 095°01'0 0.0
2017-Nov-12 02:00N 29°37' W 095°01'0 0.0
2017-Nov-12 01:30N 29°37' W 095°01'0 0.0
2017-Nov-12 01:00N 29°37' W 095°01'0 0.0
2017-Nov-12 00:30N 29°37' W 095°01'0 0.0
2017-Nov-12 00:00N 29°37' W 095°01'0 0.7
2017-Nov-11 23:30N 29°37' W 095°01'4 7.0
2017-Nov-11 23:00N 29°36' W 094°57'4 7.7
2017-Nov-11 22:30N 29°33' W 094°55'3 0.1
2017-Nov-09 22:46N 29°31' W 094°53'2 7.2
2017-Nov-09 22:30N 29°32' W 094°54'4 7.3
2017-Nov-09 22:00N 29°35' W 094°56'3 5.6
2017-Nov-09 21:30N 29°37' W 094°59'2 3.9
2017-Nov-09 21:00N 29°37' W 095°01'0 0.0
2017-Nov-09 20:30N 29°37' W 095°01'0 0.0
2017-Nov-09 20:00N 29°37' W 095°01'0 0.0
2017-Nov-09 19:30N 29°37' W 095°01'0 0.0
2017-Nov-09 19:00N 29°37' W 095°01'0 0.0
2017-Nov-09 18:30N 29°37' W 095°01'0 0.0
2017-Nov-09 18:00N 29°37' W 095°01'0 0.0
2017-Nov-09 17:30N 29°37' W 095°01'0 0.0
2017-Nov-09 17:00N 29°37' W 095°01'0 0.0
2017-Nov-09 16:30N 29°37' W 095°01'0 0.0
2017-Nov-09 16:00N 29°37' W 095°01'0 0.0
2017-Nov-09 15:30N 29°37' W 095°01'0 0.0
2017-Nov-09 15:00N 29°37' W 095°01'0 0.0
2017-Nov-09 14:30N 29°37' W 095°01'0 0.0
2017-Nov-09 14:00N 29°37' W 095°01'0 0.0
2017-Nov-09 13:30N 29°37' W 095°01'0 0.6
2017-Nov-09 13:00N 29°37' W 095°01'0 0.0
2017-Nov-09 12:30N 29°37' W 095°01'0 0.0
2017-Nov-09 12:00N 29°37' W 095°01'0 0.0
2017-Nov-09 11:30N 29°37' W 095°01'0 0.0
2017-Nov-09 11:00N 29°37' W 095°01'0 0.0
2017-Nov-09 10:30N 29°37' W 095°01'0 0.0
2017-Nov-09 10:00N 29°37' W 095°01'0 0.0
2017-Nov-09 09:30N 29°37' W 095°01'0 0.0
2017-Nov-09 09:00N 29°37' W 095°01'0 0.0
2017-Nov-09 08:30N 29°37' W 095°01'0 0.0
2017-Nov-09 08:00N 29°37' W 095°01'0 0.0
2017-Nov-09 07:30N 29°37' W 095°01'0 0.0
2017-Nov-09 07:00N 29°37' W 095°01'0 0.0
2017-Nov-09 06:30N 29°37' W 095°01'0 0.0
2017-Nov-09 06:00N 29°37' W 095°01'0 0.0
2017-Nov-09 05:30N 29°37' W 095°01'0 0.0
2017-Nov-09 05:00N 29°37' W 095°01'0 0.0
2017-Nov-09 04:30N 29°37' W 095°01'0 0.0
2017-Nov-09 04:00N 29°37' W 095°01'0 0.0
2017-Nov-09 03:30N 29°37' W 095°01'0 0.0
2017-Nov-09 03:00N 29°37' W 095°01'0 0.0
2017-Nov-09 02:30N 29°37' W 095°01'0 0.0
2017-Nov-09 02:00N 29°37' W 095°01'0 0.0
2017-Nov-09 01:30N 29°37' W 095°01'0 0.0
2017-Nov-09 01:00N 29°37' W 095°01'0 0.0
2017-Nov-09 00:30N 29°37' W 095°01'1 1.3
2017-Nov-09 00:00N 29°37' W 095°01'3 6.7
2017-Nov-08 23:30N 29°36' W 094°57'4 7.4
2017-Nov-08 23:00N 29°33' W 094°55'  

Dump ship's entire track history